Time;durP1;ratioP1;P1;durP2;ratioP2;P2;SDS_P1;SDS_P2;PMS_P1;PMS_P2;Temp;Humidity;BMP_temperature;BMP_pressure;BME280_temperature;BME280_humidity;BME280_pressure;Samples;Min_cycle;Max_cycle;Signal;HPM_P1;HPM_P2
2022/08/12 00:44:55;;;;;;;14.27;11.55;;;;;;;23.10;72.00;100049.75;5008273;28;20468;-31
2022/08/12 00:47:21;;;;;;;14.35;11.38;;;;;;;23.07;71.82;100039.50;5007275;28;20069;-29
2022/08/12 00:49:50;;;;;;;15.18;12.68;;;;;;;22.96;72.21;100032.59;5007008;28;20492;-30
2022/08/12 00:52:18;;;;;;;17.08;12.05;;;;;;;23.00;72.67;100049.94;5006854;28;20088;-28
2022/08/12 00:54:49;;;;;;;14.07;11.88;;;;;;;23.08;72.53;100041.09;5007071;28;20533;-34
2022/08/12 00:57:18;;;;;;;14.05;11.93;;;;;;;22.99;72.79;100030.09;5006953;28;20128;-31
2022/08/12 00:59:54;;;;;;;13.68;11.90;;;;;;;23.09;72.32;100037.28;5006890;28;20040;-32
2022/08/12 01:02:31;;;;;;;14.10;12.60;;;;;;;23.05;71.58;100028.91;5008327;28;20026;-32
2022/08/12 01:13:16;;;;;;;14.73;11.88;;;;;;;23.01;72.78;100054.28;5008206;28;20057;-31
2022/08/12 01:15:44;;;;;;;12.93;11.33;;;;;;;22.97;72.86;100047.81;5006820;28;20033;-28
2022/08/12 01:18:12;;;;;;;15.82;13.20;;;;;;;22.77;73.60;100030.78;5006113;28;20689;-29
2022/08/12 01:20:52;;;;;;;14.57;12.60;;;;;;;22.93;73.85;100052.25;5006749;28;20034;-35
2022/08/12 01:23:45;;;;;;;16.00;13.20;;;;;;;22.94;73.60;100051.94;5007816;28;20728;-28
2022/08/12 01:26:16;;;;;;;14.50;12.73;;;;;;;22.82;73.63;100033.44;5022916;28;20030;-28
2022/08/12 01:28:45;;;;;;;14.43;12.45;;;;;;;22.83;74.20;100055.97;5006855;28;20449;-29
2022/08/12 01:31:11;;;;;;;15.27;12.50;;;;;;;22.70;74.42;100051.31;5006545;28;20103;-29
2022/08/12 01:33:58;;;;;;;15.43;12.43;;;;;;;22.53;75.12;100058.13;5007747;28;20041;-29
2022/08/12 01:36:27;;;;;;;16.05;13.48;;;;;;;22.40;75.49;100043.41;5007969;28;20089;-28
2022/08/12 01:38:56;;;;;;;14.60;12.60;;;;;;;22.27;75.64;100034.13;5007773;28;20041;-30
2022/08/12 01:41:24;;;;;;;14.18;12.02;;;;;;;22.24;75.46;100023.06;5007637;28;20026;-28
2022/08/12 01:43:53;;;;;;;14.13;11.60;;;;;;;22.38;75.25;100037.47;5007473;28;20110;-29
2022/08/12 01:46:42;;;;;;;14.00;11.98;;;;;;;22.29;74.87;100028.38;5005576;28;20085;-29
2022/08/12 01:49:25;;;;;;;17.98;11.82;;;;;;;22.30;75.13;100032.72;5007638;28;20034;-32
2022/08/12 01:52:00;;;;;;;17.25;12.48;;;;;;;22.26;74.96;100009.97;5022238;28;20038;-28
2022/08/12 01:54:27;;;;;;;15.70;12.82;;;;;;;22.30;75.20;100026.50;5007462;28;20081;-33
2022/08/12 01:57:02;;;;;;;16.95;13.02;;;;;;;22.27;75.06;100027.88;5022083;28;20103;-30
2022/08/12 01:59:48;;;;;;;14.70;12.32;;;;;;;22.12;75.56;100020.78;5007316;28;20469;-32
2022/08/12 02:02:17;;;;;;;14.23;12.73;;;;;;;21.97;75.79;100007.47;5007017;28;20034;-29
2022/08/12 02:12:00;;;;;;;16.27;12.80;;;;;;;21.70;78.63;100024.41;5041773;28;20028;-28
2022/08/12 02:15:11;;;;;;;18.85;14.10;;;;;;;21.77;78.52;100024.88;5007081;28;20092;-29
2022/08/12 02:17:49;;;;;;;21.38;17.27;;;;;;;21.70;79.10;100018.97;5026865;28;20032;-29
2022/08/12 02:20:37;;;;;;;19.70;16.25;;;;;;;21.57;79.41;100023.25;5043794;28;20105;-31
2022/08/12 02:23:06;;;;;;;23.70;19.23;;;;;;;21.50;79.37;100020.09;5016047;28;20041;-28
2022/08/12 02:25:35;;;;;;;25.92;17.48;;;;;;;21.52;80.23;100020.63;5005425;28;20501;-32
2022/08/12 02:28:01;;;;;;;18.60;15.05;;;;;;;21.41;80.81;100036.19;5006399;28;20026;-30
2022/08/12 02:30:30;;;;;;;21.95;17.70;;;;;;;21.49;81.02;100030.13;5006661;28;20030;-31
2022/08/12 02:32:58;;;;;;;23.90;17.45;;;;;;;21.36;81.74;100030.84;5005554;28;20077;-31
2022/08/12 02:35:27;;;;;;;20.30;16.75;;;;;;;21.25;82.09;100020.13;5006296;28;20390;-29
2022/08/12 02:37:55;;;;;;;21.58;17.27;;;;;;;21.28;82.07;100019.53;5005012;28;20512;-32
2022/08/12 02:40:22;;;;;;;20.58;15.80;;;;;;;21.44;81.06;100028.31;5006556;28;20037;-29
2022/08/12 02:42:59;;;;;;;21.10;17.23;;;;;;;21.54;80.11;100013.78;5006343;28;20029;-29
2022/08/12 02:46:03;;;;;;;20.33;16.15;;;;;;;21.60;79.45;100020.75;5004905;28;20045;-28
2022/08/12 02:48:46;;;;;;;17.30;15.50;;;;;;;21.65;79.39;100028.81;5007600;28;20092;-32
2022/08/12 02:51:18;;;;;;;22.02;16.13;;;;;;;21.83;78.80;100026.41;5006415;28;20038;-28
2022/08/12 02:53:44;;;;;;;19.80;15.35;;;;;;;21.58;79.37;100001.25;5005088;28;20042;-31
2022/08/12 02:56:11;;;;;;;18.88;14.35;;;;;;;21.39;80.92;100003.13;5004705;28;20033;-32
2022/08/12 02:58:38;;;;;;;19.20;14.50;;;;;;;21.27;81.57;100015.22;5021480;28;20096;-32
2022/08/12 03:01:09;;;;;;;20.00;16.58;;;;;;;21.44;80.75;100005.81;5021294;28;20033;-28
2022/08/12 03:03:36;;;;;;;20.08;16.25;;;;;;;21.63;79.84;100017.44;5006249;28;20030;-35
2022/08/12 03:06:02;;;;;;;18.80;15.52;;;;;;;21.56;80.40;100030.59;5004981;28;20034;-28
2022/08/12 03:08:42;;;;;;;18.17;15.45;;;;;;;21.38;80.54;100018.59;5006308;28;20064;-30
2022/08/12 03:11:38;;;;;;;17.70;15.02;;;;;;;21.45;80.66;100029.09;5006420;28;20030;-34
2022/08/12 03:14:05;;;;;;;23.45;17.63;;;;;;;21.49;80.60;100029.34;5006109;28;20040;-29
2022/08/12 03:16:31;;;;;;;24.08;16.85;;;;;;;21.60;79.61;100018.03;5006504;28;20022;-30
2022/08/12 03:18:57;;;;;;;23.83;17.83;;;;;;;21.18;81.98;100027.00;5006004;28;20044;-31
2022/08/12 03:21:24;;;;;;;20.95;17.92;;;;;;;21.25;81.96;100030.97;5008673;28;20557;-28
2022/08/12 03:23:52;;;;;;;23.42;19.15;;;;;;;21.28;81.43;100035.81;5008474;28;20026;-27
2022/08/12 03:26:23;;;;;;;19.35;16.83;;;;;;;21.52;79.87;100026.84;5008365;28;20533;-35
2022/08/12 03:28:49;;;;;;;22.20;18.52;;;;;;;21.56;79.32;100036.00;5008881;28;20125;-28
2022/08/12 03:31:16;;;;;;;27.25;18.63;;;;;;;21.36;79.63;100023.50;5009923;28;20406;-28
2022/08/12 03:33:44;;;;;;;34.85;18.23;;;;;;;21.32;80.24;100035.22;5010052;28;20041;-30
2022/08/12 03:36:10;;;;;;;;;;;;;;;21.16;80.55;100026.47;5008530;28;20030;-28
2022/08/12 03:38:41;;;;;;;26.45;17.77;;;;;;;21.18;81.39;100029.69;5025005;28;19914;-31
2022/08/12 04:01:11;;;;;;;19.52;16.27;;;;;;;21.15;78.81;100063.63;5009628;28;20774;-30
2022/08/12 04:03:53;;;;;;;19.30;15.45;;;;;;;21.17;79.31;100052.50;4991717;28;20065;-29
2022/08/12 04:06:28;;;;;;;22.98;17.48;;;;;;;21.39;78.09;100049.22;5009248;28;20034;-31
2022/08/12 04:08:56;;;;;;;26.00;18.10;;;;;;;21.31;78.03;100056.13;5007966;28;20083;-29
2022/08/12 04:14:21;;;;;;;23.30;17.90;;;;;;;21.31;78.46;100056.13;5009085;28;20103;-29
2022/08/12 04:16:48;;;;;;;20.83;16.75;;;;;;;20.87;81.25;100057.19;5009256;28;20096;-31
2022/08/12 04:19:14;;;;;;;22.95;18.00;;;;;;;20.98;81.96;100080.34;5007752;28;20038;-30
2022/08/12 04:21:40;;;;;;;20.67;17.58;;;;;;;21.17;80.75;100061.44;5007552;28;20030;-28
2022/08/12 04:24:06;;;;;;;20.55;17.90;;;;;;;21.45;79.95;100073.34;5008794;28;20409;-33
2022/08/12 04:26:34;;;;;;;19.63;16.83;;;;;;;21.57;79.34;100083.75;5023820;28;20116;-28
2022/08/12 04:29:00;;;;;;;20.88;16.63;;;;;;;21.71;78.10;100072.19;5007425;28;20046;-28
2022/08/12 04:31:34;;;;;;;22.23;17.17;;;;;;;21.95;76.75;100086.47;5008197;28;20041;-32
2022/08/12 04:34:01;;;;;;;22.20;16.92;;;;;;;22.21;75.56;100088.78;5024109;28;20033;-29
2022/08/12 04:36:28;;;;;;;22.05;17.10;;;;;;;22.18;76.03;100079.34;5007549;28;20061;-29
2022/08/12 04:38:54;;;;;;;23.10;17.23;;;;;;;22.31;75.47;100087.88;5007359;28;20041;-30
2022/08/12 04:41:20;;;;;;;23.30;17.65;;;;;;;22.28;75.79;100086.56;5008757;28;20034;-30
2022/08/12 04:43:47;;;;;;;20.60;17.80;;;;;;;22.31;75.82;100082.44;5007354;28;20125;-31
2022/08/12 04:46:13;;;;;;;21.92;17.45;;;;;;;22.32;75.69;100079.41;5007063;28;20477;-31
2022/08/12 04:48:40;;;;;;;20.38;17.50;;;;;;;22.33;75.87;100091.91;5008532;28;20602;-29
2022/08/12 04:51:06;;;;;;;23.73;17.70;;;;;;;22.13;77.02;100065.03;5008664;28;20529;-33
2022/08/12 04:53:32;;;;;;;22.65;17.55;;;;;;;22.26;77.11;100086.03;5006989;28;20037;-29
2022/08/12 04:55:59;;;;;;;23.00;18.65;;;;;;;22.33;76.83;100080.22;5006606;28;20032;-29
2022/08/12 04:58:25;;;;;;;23.83;20.77;;;;;;;22.10;78.36;100084.63;5008635;28;20048;-31
2022/08/12 05:00:50;;;;;;;22.05;19.75;;;;;;;22.15;78.21;100082.66;5006938;28;20502;-28
2022/08/12 05:03:16;;;;;;;23.45;19.23;;;;;;;22.26;78.02;100080.59;5008194;28;20033;-29
2022/08/12 05:05:42;;;;;;;24.70;19.15;;;;;;;22.34;77.78;100066.34;5008199;28;20824;-31
2022/08/12 05:08:14;;;;;;;24.35;19.45;;;;;;;22.41;78.09;100076.81;5006599;28;20034;-28
2022/08/12 05:10:40;;;;;;;21.45;18.92;;;;;;;22.36;77.28;100068.78;5006553;28;20889;-32
2022/08/12 05:13:13;;;;;;;24.50;19.27;;;;;;;22.39;77.73;100079.03;5008265;28;20072;-32
2022/08/12 05:15:39;;;;;;;30.60;19.95;;;;;;;22.65;73.91;100074.78;5006615;28;20029;-32
2022/08/12 05:18:05;;;;;;;26.85;21.08;;;;;;;23.01;73.74;100078.75;5006761;28;20916;-30
2022/08/12 05:20:30;;;;;;;50.20;35.47;;;;;;;22.89;75.83;100075.72;5008285;28;20069;-35
2022/08/12 05:23:09;;;;;;;21.00;16.35;;;;;;;22.98;74.31;100082.06;5007817;28;20125;-30
2022/08/12 05:25:35;;;;;;;21.38;18.10;;;;;;;23.23;73.30;100069.91;5008028;28;20032;-33
2022/08/12 05:28:01;;;;;;;23.23;18.92;;;;;;;23.28;72.84;100086.13;5022914;28;20029;-31
2022/08/12 05:30:27;;;;;;;21.85;17.52;;;;;;;23.29;72.26;100073.31;5008062;28;20486;-29
2022/08/12 05:32:54;;;;;;;20.60;17.30;;;;;;;23.25;72.54;100071.22;5006343;28;20041;-30
2022/08/12 05:35:21;;;;;;;19.25;15.52;;;;;;;23.43;72.27;100079.56;5006201;28;20025;-30
2022/08/12 05:37:47;;;;;;;20.50;16.03;;;;;;;23.45;70.57;100085.50;5006039;28;20124;-34
2022/08/12 05:40:13;;;;;;;17.30;14.05;;;;;;;23.45;71.21;100083.56;5006443;28;20120;-33
2022/08/12 05:42:38;;;;;;;17.15;14.52;;;;;;;23.46;70.47;100062.63;5006017;28;20090;-29
2022/08/12 05:45:05;;;;;;;15.52;12.50;;;;;;;23.69;69.91;100087.19;5007371;28;20065;-29
2022/08/12 05:47:31;;;;;;;13.77;12.35;;;;;;;23.78;68.85;100088.09;5007441;28;20080;-34
2022/08/12 05:49:58;;;;;;;14.27;12.00;;;;;;;24.14;67.37;100076.38;5007151;28;20119;-30
2022/08/12 05:52:24;;;;;;;16.30;13.43;;;;;;;24.21;66.71;100071.28;5005969;28;20032;-29
2022/08/12 05:54:50;;;;;;;12.15;10.63;;;;;;;24.47;65.69;100094.06;5003936;28;20026;-32
2022/08/12 05:57:16;;;;;;;13.43;10.40;;;;;;;24.41;65.87;100081.69;4999991;28;20505;-32
2022/08/12 05:59:42;;;;;;;11.93;9.98;;;;;;;24.41;64.74;100087.13;5004211;28;20042;-31
2022/08/12 06:02:10;;;;;;;11.43;9.30;;;;;;;24.44;65.28;100086.50;5022096;28;20032;-31
2022/08/12 06:04:37;;;;;;;12.82;9.68;;;;;;;24.52;64.39;100076.00;5038585;28;20144;-29
2022/08/12 06:07:06;;;;;;;12.13;9.50;;;;;;;24.38;64.63;100065.97;5036734;28;20026;-33
2022/08/12 06:09:32;;;;;;;12.20;9.48;;;;;;;24.68;63.86;100082.66;5022143;28;20041;-30
2022/08/12 06:11:57;;;;;;;13.23;9.35;;;;;;;24.56;63.68;100077.81;5006841;28;20036;-30
2022/08/12 06:14:23;;;;;;;11.15;9.38;;;;;;;24.61;64.20;100079.59;5006994;28;20033;-30
2022/08/12 06:16:50;;;;;;;15.85;9.15;;;;;;;24.64;63.57;100084.41;5003427;28;20068;-29
2022/08/12 06:19:16;;;;;;;12.95;9.13;;;;;;;24.72;62.04;100086.38;5021736;28;20069;-31
2022/08/12 06:21:41;;;;;;;12.65;8.85;;;;;;;24.64;63.08;100084.41;5007057;28;20517;-33
2022/08/12 06:24:07;;;;;;;10.52;8.77;;;;;;;24.73;63.02;100093.44;5006761;28;20039;-32
2022/08/12 06:26:33;;;;;;;12.00;8.43;;;;;;;24.73;62.71;100070.81;5021638;28;20025;-29
2022/08/12 06:28:59;;;;;;;10.18;8.55;;;;;;;24.96;61.09;100079.75;5005202;28;20037;-30
2022/08/12 06:31:26;;;;;;;11.93;8.15;;;;;;;25.25;61.19;100087.41;5021259;28;20026;-30
2022/08/12 06:33:52;;;;;;;10.40;7.45;;;;;;;25.15;59.63;100088.50;5004998;28;20041;-33
2022/08/12 06:36:21;;;;;;;8.77;6.80;;;;;;;24.97;59.10;100070.47;5021956;28;20045;-33
2022/08/12 06:38:47;;;;;;;10.52;7.18;;;;;;;25.10;59.02;100088.63;5005385;28;20037;-32
2022/08/12 06:43:58;;;;;;;9.70;6.55;;;;;;;25.27;57.93;100082.44;5006812;28;20052;-29
2022/08/12 06:46:26;;;;;;;8.10;6.85;;;;;;;25.37;58.05;100089.53;5006508;28;20482;-30
2022/08/12 06:48:56;;;;;;;8.57;6.93;;;;;;;25.46;56.70;100072.06;5005330;28;20026;-29
2022/08/12 06:51:27;;;;;;;7.50;6.40;;;;;;;25.54;55.79;100081.41;5006853;28;20034;-34
2022/08/12 06:53:52;;;;;;;10.00;6.30;;;;;;;25.72;55.13;100067.75;5004557;28;20068;-32
2022/08/12 06:56:18;;;;;;;8.10;6.20;;;;;;;25.71;55.03;100071.63;5006361;28;20037;-32
2022/08/12 06:58:43;;;;;;;9.25;6.10;;;;;;;25.59;56.30;100061.31;5006313;28;20030;-33
2022/08/12 07:01:09;;;;;;;8.35;5.80;;;;;;;25.73;53.28;100061.19;5006297;28;20033;-31
2022/08/12 07:03:36;;;;;;;6.60;5.30;;;;;;;25.88;55.39;100060.69;5005025;28;20037;-32
2022/08/12 07:06:04;;;;;;;9.40;6.03;;;;;;;26.00;53.20;100049.94;5006260;28;20052;-29
2022/08/12 07:08:32;;;;;;;7.70;5.53;;;;;;;26.21;52.89;100035.59;5004797;28;20030;-28
2022/08/12 07:11:00;;;;;;;8.98;6.22;;;;;;;26.46;53.83;100042.94;5021455;28;20038;-29
2022/08/12 07:13:47;;;;;;;6.90;4.82;;;;;;;26.56;48.94;100063.69;5021146;28;20034;-29
2022/08/12 07:16:14;;;;;;;7.75;4.50;;;;;;;26.39;49.08;100058.25;5021483;28;20161;-31
2022/08/12 07:18:42;;;;;;;6.65;4.35;;;;;;;26.74;47.53;100069.91;5004768;28;20117;-29
2022/08/12 07:21:09;;;;;;;6.70;4.80;;;;;;;26.83;47.39;100057.00;5021273;28;20030;-33
2022/08/12 07:23:37;;;;;;;8.43;5.13;;;;;;;26.82;47.92;100047.16;5006207;28;20112;-30
2022/08/12 07:26:06;;;;;;;5.90;4.10;;;;;;;27.16;46.14;100058.31;5006012;28;20026;-31
2022/08/12 07:28:34;;;;;;;5.28;3.92;;;;;;;27.27;45.77;100043.13;5021094;28;20494;-29
2022/08/12 07:31:07;;;;;;;6.97;4.30;;;;;;;27.52;45.88;100049.53;5004943;28;20053;-30
2022/08/12 07:33:37;;;;;;;7.05;4.35;;;;;;;27.62;43.30;100040.13;5006151;28;20040;-31
2022/08/12 07:36:05;;;;;;;6.00;4.20;;;;;;;27.73;45.16;100044.09;4988794;28;20060;-29
2022/08/12 07:38:42;;;;;;;4.65;3.10;;;;;;;27.86;41.50;100047.66;5004485;28;20052;-29
2022/08/12 07:41:11;;;;;;;6.33;4.10;;;;;;;28.04;43.56;100049.16;5005013;28;20080;-33
2022/08/12 07:43:40;;;;;;;5.38;3.85;;;;;;;28.33;42.70;100039.19;5020980;28;20033;-29
2022/08/12 07:46:09;;;;;;;4.97;3.47;;;;;;;28.46;41.77;100034.53;5004105;28;20552;-30
2022/08/12 07:48:39;;;;;;;5.00;3.35;;;;;;;28.84;41.07;100042.47;5004463;28;20117;-30
2022/08/12 07:51:05;;;;;;;7.60;3.60;;;;;;;28.77;41.30;100025.81;5020814;28;20489;-29
2022/08/12 07:53:31;;;;;;;5.40;3.55;;;;;;;28.61;40.91;100033.09;5006182;28;20022;-29
2022/08/12 07:55:57;;;;;;;4.93;3.35;;;;;;;28.80;39.90;100036.06;5004304;28;20026;-30
2022/08/12 07:58:24;;;;;;;6.18;3.58;;;;;;;28.90;39.93;100031.28;5005808;28;20063;-34
2022/08/12 08:00:49;;;;;;;6.00;3.10;;;;;;;28.90;38.95;100028.53;5004413;28;20046;-33
2022/08/12 08:03:15;;;;;;;5.13;3.30;;;;;;;28.76;38.72;100034.38;5004437;28;20072;-29
2022/08/12 08:05:48;;;;;;;5.50;3.30;;;;;;;28.82;40.00;100022.81;5004471;28;20022;-29
2022/08/12 08:08:22;;;;;;;9.43;3.55;;;;;;;28.88;39.16;100019.84;5008057;28;20107;-30
2022/08/12 08:10:51;;;;;;;5.35;3.10;;;;;;;29.26;38.89;100030.50;5024631;28;20038;-29
2022/08/12 08:13:16;;;;;;;5.95;3.45;;;;;;;29.11;38.78;100021.00;5008070;28;20022;-34
2022/08/12 08:15:44;;;;;;;6.32;3.45;;;;;;;28.85;38.10;100016.66;5009111;28;20037;-30
2022/08/12 08:18:12;;;;;;;4.97;3.20;;;;;;;29.23;38.67;100020.97;5007615;28;20022;-29
2022/08/12 08:20:43;;;;;;;6.95;2.95;;;;;;;29.24;39.12;100006.13;5007763;28;20034;-33
2022/08/12 08:23:12;;;;;;;6.07;3.60;;;;;;;29.40;38.13;100014.44;5009192;28;20030;-33
2022/08/12 08:25:38;;;;;;;5.05;3.28;;;;;;;29.53;37.63;100001.47;5024172;28;20069;-29
2022/08/12 08:28:04;;;;;;;6.85;3.10;;;;;;;29.53;37.06;100017.16;5008886;28;20088;-32
2022/08/12 08:30:31;;;;;;;4.65;2.70;;;;;;;29.30;38.38;100008.59;5023961;28;20573;-32
2022/08/12 08:32:57;;;;;;;7.00;3.10;;;;;;;29.54;37.73;99988.53;5009290;28;20084;-34
2022/08/12 08:35:24;;;;;;;5.90;3.20;;;;;;;29.42;36.23;99984.69;5009217;28;20038;-29
2022/08/12 08:37:50;;;;;;;5.50;3.30;;;;;;;29.78;37.06;99998.66;5007238;28;20592;-30
2022/08/12 08:43:01;;;;;;;4.68;2.90;;;;;;;29.83;35.72;99987.38;5008734;28;20304;-33
2022/08/12 08:45:27;;;;;;;4.32;3.00;;;;;;;29.97;35.60;100004.28;5008615;28;20041;-29
2022/08/12 08:47:53;;;;;;;6.43;2.70;;;;;;;30.30;35.20;99994.97;5006933;28;20088;-29
2022/08/12 08:50:19;;;;;;;3.80;2.78;;;;;;;30.23;35.35;100000.25;5023725;28;20119;-31
2022/08/12 08:52:46;;;;;;;5.03;2.40;;;;;;;30.31;34.17;99996.56;5007134;28;20505;-33
2022/08/12 08:55:12;;;;;;;5.47;2.45;;;;;;;30.52;33.49;99995.50;5023523;28;20022;-30
2022/08/12 08:57:39;;;;;;;3.63;2.58;;;;;;;30.81;33.49;99995.03;5023388;28;20745;-29
2022/08/12 09:00:05;;;;;;;5.40;2.53;;;;;;;30.74;33.30;99985.81;5008478;28;20026;-31
2022/08/12 09:02:31;;;;;;;4.85;2.85;;;;;;;31.08;34.07;99989.78;5023682;28;20034;-29
2022/08/12 09:04:57;;;;;;;4.47;2.67;;;;;;;31.06;33.20;99972.81;5008508;28;20425;-29
2022/08/12 09:07:22;;;;;;;5.20;2.92;;;;;;;31.40;32.81;99976.66;5008410;28;20030;-29
2022/08/12 09:09:49;;;;;;;5.25;2.40;;;;;;;31.81;33.80;99976.31;5008030;28;20037;-34
2022/08/12 09:14:59;;;;;;;4.95;2.80;;;;;;;32.02;31.15;99957.47;5008312;28;20084;-36
2022/08/12 09:17:24;;;;;;;5.00;2.78;;;;;;;31.93;31.83;99967.88;5007903;28;20030;-29
2022/08/12 09:19:50;;;;;;;4.68;2.90;;;;;;;31.78;32.10;99953.03;5023047;28;20030;-33
2022/08/12 09:22:15;;;;;;;4.43;2.60;;;;;;;32.06;31.17;99960.28;5007942;28;20064;-34
2022/08/12 09:24:41;;;;;;;3.78;2.60;;;;;;;32.12;31.26;99952.47;5007672;28;20034;-31
2022/08/12 09:27:07;;;;;;;5.50;2.80;;;;;;;32.14;31.93;99939.13;5007834;28;20084;-30
2022/08/12 09:29:32;;;;;;;5.53;3.10;;;;;;;32.43;31.42;99952.25;5007881;28;20125;-29
2022/08/12 09:31:59;;;;;;;4.28;2.60;;;;;;;32.12;31.21;99942.28;5022695;28;20127;-29
2022/08/12 09:34:28;;;;;;;4.57;3.00;;;;;;;31.44;31.21;99943.72;5006370;28;20085;-30
2022/08/12 09:36:54;;;;;;;5.38;2.90;;;;;;;31.47;31.86;99943.00;5006239;28;20572;-30
2022/08/12 09:39:19;;;;;;;4.00;2.65;;;;;;;31.82;31.71;99944.84;5022471;28;20030;-29
2022/08/12 09:45:19;;;;;;;3.65;2.67;;;;;;;32.12;31.03;99938.69;5007544;28;20030;-30
2022/08/12 09:47:15;;;;;;;5.78;3.20;;;;;;;32.18;30.88;99940.78;5007402;28;20060;-31
2022/08/12 09:49:40;;;;;;;5.90;3.08;;;;;;;32.55;31.42;99939.41;5007505;28;20026;-32
2022/08/12 09:52:06;;;;;;;3.65;2.50;;;;;;;32.51;30.41;99930.25;5007269;28;20042;-31
2022/08/12 09:54:31;;;;;;;5.05;2.95;;;;;;;33.02;29.92;99938.16;5007587;28;20029;-32
2022/08/12 09:56:57;;;;;;;3.10;2.45;;;;;;;33.15;29.52;99933.19;5007358;28;20117;-33
2022/08/12 09:59:22;;;;;;;4.20;2.70;;;;;;;33.01;29.02;99939.28;5007591;28;20030;-30
2022/08/12 10:01:48;;;;;;;3.55;2.63;;;;;;;32.95;28.98;99929.75;5005620;28;20080;-29
2022/08/12 10:04:14;;;;;;;5.28;2.70;;;;;;;32.53;29.51;99914.13;5007223;28;20034;-30
2022/08/12 10:06:42;;;;;;;3.67;2.63;;;;;;;32.48;29.74;99925.50;5005665;28;20110;-32
2022/08/12 10:09:09;;;;;;;3.05;2.60;;;;;;;32.69;30.52;99925.81;5005855;28;20025;-31
2022/08/12 10:14:20;;;;;;;7.97;3.00;;;;;;;32.78;29.68;99912.56;5007056;28;20405;-29
2022/08/12 10:16:46;;;;;;;3.75;2.88;;;;;;;32.86;29.99;99920.97;4988637;28;20026;-30
2022/08/12 10:19:14;;;;;;;6.25;2.92;;;;;;;33.17;29.29;99906.00;5004397;28;20802;-30
2022/08/12 10:21:40;;;;;;;5.15;2.75;;;;;;;33.43;28.71;99900.38;5005015;28;20065;-29
2022/08/12 10:24:09;;;;;;;4.00;2.83;;;;;;;33.29;28.88;99910.47;5004818;28;20753;-32
2022/08/12 10:32:19;;;;;;;4.50;2.80;;;;;;;32.38;28.97;99894.56;5006832;28;20044;-32
2022/08/12 10:34:46;;;;;;;4.20;2.92;;;;;;;32.43;29.28;99890.72;5005677;28;20091;-29
2022/08/12 10:37:13;;;;;;;3.90;2.80;;;;;;;32.33;29.53;99888.59;5005224;28;20422;-32
2022/08/12 10:39:39;;;;;;;5.10;2.85;;;;;;;33.14;29.48;99879.91;5005116;28;20040;-29
2022/08/12 10:44:48;;;;;;;4.25;2.85;;;;;;;34.27;28.16;99877.88;5006871;28;20091;-29
2022/08/12 10:47:20;;;;;;;3.38;2.65;;;;;;;34.77;26.57;99882.94;5006558;28;20042;-31
2022/08/12 10:49:47;;;;;;;4.13;2.80;;;;;;;34.79;26.79;99873.06;5005307;28;20069;-34
2022/08/12 10:52:13;;;;;;;5.03;2.75;;;;;;;34.69;26.16;99864.72;5006229;28;20026;-31
2022/08/12 10:54:41;;;;;;;3.17;2.42;;;;;;;34.92;25.52;99883.81;5006823;28;20124;-30
2022/08/12 10:57:07;;;;;;;6.70;2.75;;;;;;;34.96;26.63;99865.22;5006614;28;20024;-33
2022/08/12 10:59:33;;;;;;;5.40;2.80;;;;;;;35.13;26.88;99858.97;5005161;28;20119;-34
2022/08/12 11:01:59;;;;;;;3.67;2.40;;;;;;;34.90;25.12;99869.56;5004804;28;20077;-33
2022/08/12 11:04:27;;;;;;;4.40;2.80;;;;;;;35.27;25.00;99861.03;5004935;28;20129;-29
2022/08/12 11:06:54;;;;;;;3.95;2.45;;;;;;;35.06;23.97;99838.75;5004620;28;20069;-32
2022/08/12 11:09:31;;;;;;;4.07;2.70;;;;;;;34.25;25.53;99858.09;5005150;28;20034;-29
2022/08/12 11:12:05;;;;;;;3.97;2.60;;;;;;;33.73;26.13;99843.41;5005138;28;20030;-32
2022/08/12 11:14:32;;;;;;;5.93;2.72;;;;;;;34.14;27.24;99854.44;5006473;28;20040;-33
2022/08/12 11:16:59;;;;;;;4.00;2.60;;;;;;;34.19;25.50;99843.03;5006494;28;20038;-30
2022/08/12 11:19:26;;;;;;;;;;;;;;;34.51;25.84;99836.88;5005330;28;20030;-30
2022/08/12 11:21:52;;;;;;;5.07;2.73;;;;;;;34.36;27.07;99822.19;5006454;28;19912;-29
2022/08/12 11:24:18;;;;;;;4.57;2.80;;;;;;;34.20;26.58;99794.78;5004675;28;20371;-32
2022/08/12 11:26:43;;;;;;;3.97;2.63;;;;;;;34.29;26.68;99831.25;5006295;28;20113;-34
2022/08/12 11:29:09;;;;;;;3.53;2.70;;;;;;;34.29;26.43;99813.84;5020977;28;20103;-32
2022/08/12 11:31:34;;;;;;;3.63;2.70;;;;;;;34.30;27.25;99824.50;5006143;28;20077;-35
2022/08/12 11:34:00;;;;;;;3.20;2.55;;;;;;;34.62;26.66;99821.13;5005674;28;20030;-35
2022/08/12 11:36:25;;;;;;;6.60;2.63;;;;;;;34.92;26.20;99801.50;5006383;28;20038;-28
2022/08/12 11:38:51;;;;;;;7.97;3.00;;;;;;;34.47;27.07;99800.09;5006283;28;20026;-31
2022/08/12 11:41:18;;;;;;;4.97;2.75;;;;;;;34.39;26.03;99810.34;5008891;28;20037;-30
2022/08/12 11:43:43;;;;;;;3.80;2.88;;;;;;;34.66;26.29;99810.91;5008338;28;20034;-33
2022/08/12 11:46:09;;;;;;;6.05;2.75;;;;;;;35.44;25.43;99809.56;5009526;28;20065;-33
2022/08/12 11:48:38;;;;;;;5.32;2.58;;;;;;;35.47;24.23;99799.66;5024519;28;20038;-32
2022/08/12 11:51:06;;;;;;;3.67;2.65;;;;;;;35.75;25.04;99799.69;5008298;28;20147;-33
2022/08/12 11:53:32;;;;;;;5.13;2.55;;;;;;;35.43;24.34;99802.41;5009705;28;20022;-32
2022/08/12 11:55:57;;;;;;;3.33;2.47;;;;;;;35.29;24.12;99791.31;5009646;28;20034;-30
2022/08/12 11:58:23;;;;;;;3.47;2.60;;;;;;;35.15;25.01;99787.34;5008156;28;20115;-32
2022/08/12 12:00:48;;;;;;;2.83;2.40;;;;;;;34.95;25.29;99791.63;5009521;28;20030;-32
2022/08/12 12:03:13;;;;;;;3.83;2.50;;;;;;;34.69;25.25;99782.41;5009421;28;20068;-33
2022/08/12 12:05:39;;;;;;;3.40;2.40;;;;;;;34.74;24.94;99784.03;5009744;28;20087;-31
2022/08/12 12:08:04;;;;;;;3.55;2.35;;;;;;;34.68;25.16;99769.75;5009212;28;20087;-32
2022/08/12 12:10:30;;;;;;;4.85;2.40;;;;;;;35.05;25.35;99774.22;5009923;28;20080;-32
2022/08/12 12:12:55;;;;;;;4.18;2.40;;;;;;;35.30;24.61;99765.97;5009711;28;20022;-29
2022/08/12 12:15:21;;;;;;;4.85;2.50;;;;;;;35.61;24.48;99775.50;5009599;28;20022;-31
2022/08/12 12:17:48;;;;;;;4.30;2.45;;;;;;;35.36;24.12;99749.75;5008917;28;20030;-33
2022/08/12 12:20:14;;;;;;;4.07;2.50;;;;;;;35.56;23.25;99762.03;5009431;28;20040;-32
2022/08/12 12:22:41;;;;;;;4.25;2.60;;;;;;;35.91;23.48;99760.44;5009049;28;20034;-31
2022/08/12 12:25:08;;;;;;;;;;;;;;;35.84;24.04;99754.91;5008425;28;20061;-33
2022/08/12 12:27:43;;;;;;;;;;;;;;;35.64;24.03;99759.28;5009571;28;19987;-31
2022/08/12 12:30:09;;;;;;;4.55;2.40;;;;;;;36.12;23.19;99753.25;5008465;28;19914;-29
2022/08/12 12:32:34;;;;;;;3.72;2.33;;;;;;;36.60;22.11;99733.28;5009064;28;20040;-31
2022/08/12 12:34:59;;;;;;;4.45;2.33;;;;;;;36.94;22.09;99741.88;5009058;28;20057;-32
2022/08/12 12:37:25;;;;;;;3.70;2.40;;;;;;;36.27;22.74;99743.75;5009080;28;20387;-32
2022/08/12 12:39:50;;;;;;;5.22;2.60;;;;;;;36.50;22.80;99728.59;5009003;28;20080;-30
2022/08/12 12:42:16;;;;;;;4.30;2.40;;;;;;;36.63;22.72;99731.72;5008945;28;20099;-29
2022/08/12 12:44:41;;;;;;;3.20;2.20;;;;;;;36.53;23.21;99738.88;5008590;28;20552;-30
2022/08/12 12:47:07;;;;;;;3.28;2.42;;;;;;;36.93;21.97;99729.16;5023871;28;20137;-33
2022/08/12 12:49:32;;;;;;;3.33;2.15;;;;;;;36.79;22.33;99724.47;5008946;28;20037;-29
2022/08/12 12:51:57;;;;;;;8.88;2.85;;;;;;;35.84;23.52;99724.41;5007752;28;20026;-31
2022/08/12 12:54:23;;;;;;;4.13;2.55;;;;;;;36.12;23.77;99719.97;5008764;28;20041;-30
2022/08/12 12:56:51;;;;;;;3.60;2.47;;;;;;;35.62;23.43;99715.28;5008656;28;20382;-31
2022/08/12 12:59:17;;;;;;;6.53;2.83;;;;;;;35.80;24.69;99723.63;5008428;28;20025;-28
2022/08/12 13:01:43;;;;;;;3.95;2.40;;;;;;;35.66;23.69;99709.78;5008481;28;20030;-32
2022/08/12 13:04:10;;;;;;;6.68;2.53;;;;;;;35.90;23.18;99722.00;5008391;28;20103;-35
2022/08/12 13:06:37;;;;;;;2.85;2.25;;;;;;;35.82;22.87;99712.91;5008417;28;20034;-33
2022/08/12 13:09:03;;;;;;;3.42;2.22;;;;;;;35.04;23.13;99717.19;5007044;28;20030;-28
2022/08/12 13:11:31;;;;;;;3.83;1.90;;;;;;;35.35;22.95;99712.09;5006927;28;20034;-28